Time;durP1;ratioP1;P1;durP2;ratioP2;P2;SDS_P1;SDS_P2;PMS_P1;PMS_P2;Temp;Humidity;BMP_temperature;BMP_pressure;BME280_temperature;BME280_humidity;BME280_pressure;Samples;Min_cycle;Max_cycle;Signal;HPM_P1;HPM_P2
2022/05/18 00:00:22;;;;;;;3.17;2.13;;;15.80;99.90;;;15.57;91.66;97697.03;5002797;28;20523;-43
2022/05/18 00:02:49;;;;;;;;;;;15.70;99.90;;;15.50;92.10;97695.63;5000780;28;20037;-44
2022/05/18 00:05:15;;;;;;;5.85;2.60;;;15.70;99.90;;;15.41;92.51;97687.19;5007247;28;20020;-43
2022/05/18 00:07:41;;;;;;;3.60;2.20;;;15.60;99.90;;;15.43;92.23;97693.31;4998951;28;20041;-43
2022/05/18 00:10:07;;;;;;;5.13;2.35;;;15.60;99.90;;;15.45;92.48;97693.22;5000734;28;20033;-42
2022/05/18 00:12:33;;;;;;;2.65;2.20;;;15.60;99.90;;;15.42;92.30;97686.25;4997184;28;20515;-42
2022/05/18 00:14:59;;;;;;;3.17;2.38;;;15.60;99.90;;;15.43;92.62;97688.00;5000141;28;20021;-43
2022/05/18 00:17:24;;;;;;;4.03;2.25;;;15.60;99.90;;;15.41;92.63;97694.31;5016502;28;20469;-42
2022/05/18 00:19:50;;;;;;;3.30;2.10;;;15.60;99.90;;;15.32;92.54;97685.00;4999415;28;20052;-44
2022/05/18 00:22:16;;;;;;;4.38;2.17;;;15.50;99.90;;;15.32;93.27;97695.66;5006913;28;20461;-44
2022/05/18 00:24:41;;;;;;;3.08;2.28;;;15.50;99.90;;;15.26;94.71;97698.63;5001431;28;20037;-43
2022/05/18 00:27:07;;;;;;;3.95;2.50;;;15.40;99.90;;;15.17;95.83;97699.09;5009479;28;20512;-43
2022/05/18 00:29:34;;;;;;;4.30;2.88;;;15.40;99.90;;;15.10;96.35;97701.19;5014829;28;20058;-43
2022/05/18 00:32:00;;;;;;;4.55;2.72;;;15.30;99.90;;;15.08;96.45;97706.59;5017598;28;20603;-43
2022/05/18 00:34:26;;;;;;;3.60;2.08;;;15.30;99.90;;;15.04;97.34;97706.84;5014563;28;21290;-45
2022/05/18 00:36:52;;;;;;;3.65;2.20;;;15.20;99.90;;;15.01;97.91;97706.97;5010601;28;20504;-44
2022/05/18 00:39:20;;;;;;;5.60;2.60;;;15.20;99.90;;;14.98;97.70;97699.16;5005549;28;20033;-43
2022/05/18 00:41:46;;;;;;;4.82;2.47;;;15.10;99.90;;;14.95;97.95;97701.94;5003050;28;20497;-44
2022/05/18 00:44:11;;;;;;;6.22;3.30;;;15.10;99.90;;;14.97;97.76;97708.06;5005887;28;20037;-45
2022/05/18 00:46:37;;;;;;;5.18;2.80;;;15.10;99.90;;;14.96;98.48;97712.50;5005393;28;20093;-43
2022/05/18 00:49:06;;;;;;;3.60;2.47;;;15.10;99.90;;;14.88;99.47;97698.78;5004161;28;20437;-43
2022/05/18 00:51:53;;;;;;;3.78;2.60;;;15.10;99.90;;;14.92;99.95;97710.09;5002464;28;20080;-44
2022/05/18 00:54:30;;;;;;;5.18;2.55;;;15.10;99.90;;;14.92;99.31;97702.13;5007443;28;20083;-43
2022/05/18 00:57:01;;;;;;;9.57;2.72;;;15.10;99.90;;;14.94;98.94;97698.44;5001873;28;21398;-44
2022/05/18 00:59:34;;;;;;;4.78;2.38;;;15.10;99.90;;;14.93;99.36;97696.75;5019510;28;20057;-44
2022/05/18 01:02:02;;;;;;;4.82;2.90;;;15.10;99.90;;;14.93;99.50;97696.75;4999069;28;20100;-44
2022/05/18 01:04:28;;;;;;;4.10;2.78;;;15.10;99.90;;;14.91;99.37;97706.56;5003045;28;20117;-45
2022/05/18 01:07:06;;;;;;;4.18;2.88;;;15.10;99.90;;;14.89;99.56;97690.72;4995133;28;20222;-43
2022/05/18 01:09:39;;;;;;;6.22;3.15;;;15.00;99.90;;;14.75;100.00;97671.09;5001657;28;20041;-43
2022/05/18 01:14:47;;;;;;;5.82;2.90;;;15.00;99.90;;;14.70;100.00;97688.09;5001499;28;20119;-46
2022/05/18 01:17:18;;;;;;;4.15;2.80;;;14.90;99.90;;;14.68;100.00;97695.28;5007946;28;20316;-47
2022/05/18 01:19:51;;;;;;;5.10;3.05;;;14.90;99.90;;;14.64;100.00;97700.81;4987133;28;20551;-47
2022/05/18 01:22:39;;;;;;;4.68;3.03;;;14.80;99.90;;;14.59;100.00;97703.72;5004691;28;20723;-46
2022/05/18 01:25:28;;;;;;;6.05;2.92;;;14.80;99.90;;;14.54;100.00;97703.03;4983562;28;20081;-46
2022/05/18 01:27:58;;;;;;;3.85;2.78;;;14.70;99.90;;;14.45;100.00;97695.53;4987019;28;20038;-47
2022/05/18 01:30:25;;;;;;;7.00;2.85;;;14.70;99.90;;;14.42;100.00;97707.13;4982133;28;20148;-46
2022/05/18 01:32:54;;;;;;;5.22;2.97;;;14.60;99.90;;;14.36;100.00;97703.91;4990694;28;20034;-48
2022/05/18 01:35:32;;;;;;;3.42;2.90;;;14.60;99.90;;;14.31;100.00;97701.47;4984767;28;20084;-47
2022/05/18 01:37:59;;;;;;;4.75;3.03;;;14.50;99.90;;;14.27;100.00;97707.88;4987761;28;20045;-47
2022/05/18 01:40:39;;;;;;;5.22;2.70;;;14.50;99.90;;;14.20;100.00;97701.97;4988477;28;20029;-46
2022/05/18 01:43:33;;;;;;;3.75;2.60;;;14.40;99.90;;;14.17;100.00;97715.38;4986988;28;20038;-45
2022/05/18 01:46:07;;;;;;;3.47;2.70;;;14.40;99.90;;;14.13;100.00;97709.34;4990815;28;20141;-46
2022/05/18 01:48:37;;;;;;;4.30;2.90;;;14.40;99.90;;;14.11;100.00;97723.63;4991660;28;20042;-46
2022/05/18 01:51:05;;;;;;;5.25;2.53;;;14.30;99.90;;;14.09;100.00;97720.19;4987138;28;20047;-46
2022/05/18 01:53:33;;;;;;;5.03;2.58;;;14.30;99.90;;;14.07;100.00;97719.41;4989999;28;20045;-47
2022/05/18 01:55:59;;;;;;;5.65;3.00;;;14.30;99.90;;;14.02;100.00;97724.06;4986575;28;20030;-47
2022/05/18 01:58:25;;;;;;;4.65;2.88;;;14.30;99.90;;;14.05;100.00;97726.53;4991446;28;20397;-46
2022/05/18 02:00:52;;;;;;;6.75;3.00;;;14.20;99.90;;;14.00;100.00;97724.13;4987773;28;20033;-46
2022/05/18 02:03:21;;;;;;;3.45;2.60;;;14.20;99.90;;;14.03;100.00;97718.69;4987825;28;20073;-48
2022/05/18 02:05:47;;;;;;;5.53;2.88;;;14.20;99.90;;;14.02;100.00;97722.25;4985716;28;20038;-47
2022/05/18 02:08:15;;;;;;;4.18;2.92;;;14.20;99.90;;;14.04;100.00;97714.22;4988605;28;20532;-47
2022/05/18 02:10:43;;;;;;;4.22;2.67;;;14.20;99.90;;;14.07;100.00;97719.41;4989330;28;20036;-46
2022/05/18 02:13:08;;;;;;;3.75;2.90;;;14.30;99.90;;;14.09;100.00;97712.22;5000919;28;20119;-45
2022/05/18 02:15:34;;;;;;;3.35;2.67;;;14.30;99.90;;;14.08;100.00;97710.50;4986165;28;20053;-46
2022/05/18 02:18:01;;;;;;;5.13;2.90;;;14.30;99.90;;;14.08;100.00;97705.19;4989628;28;20033;-46
2022/05/18 02:20:27;;;;;;;3.38;2.70;;;14.30;99.90;;;14.06;100.00;97699.94;4985969;28;20041;-46
2022/05/18 02:22:52;;;;;;;4.28;2.97;;;14.30;99.90;;;14.04;100.00;97708.94;4991787;28;20779;-49
2022/05/18 02:25:20;;;;;;;4.65;3.17;;;14.30;99.90;;;14.02;100.00;97713.44;4992184;28;20069;-46
2022/05/18 02:27:46;;;;;;;4.28;2.67;;;14.30;99.90;;;14.00;100.00;97712.63;4994840;28;20079;-48
2022/05/18 02:30:14;;;;;;;5.10;2.92;;;14.20;99.90;;;13.99;100.00;97706.47;4988492;28;20038;-48
2022/05/18 02:32:39;;;;;;;5.78;3.05;;;14.20;99.90;;;14.00;100.00;97712.63;4992516;28;20385;-46
2022/05/18 02:35:09;;;;;;;6.25;3.53;;;14.20;99.90;;;13.99;100.00;97719.72;4994319;28;20509;-46
2022/05/18 02:37:34;;;;;;;5.53;3.20;;;14.20;99.90;;;14.00;100.00;97712.63;4989774;28;20437;-46
2022/05/18 02:40:00;;;;;;;3.60;2.95;;;14.20;99.90;;;13.98;100.00;97719.78;4996992;28;20038;-46
2022/05/18 02:42:26;;;;;;;4.43;2.55;;;14.20;99.90;;;13.93;100.00;97725.31;4986744;28;20517;-46
2022/05/18 02:44:52;;;;;;;3.65;2.55;;;14.10;99.90;;;13.89;100.00;97723.72;4989641;28;20033;-46
2022/05/18 02:47:19;;;;;;;5.78;3.38;;;14.10;99.90;;;13.82;100.00;97728.47;4987024;28;20029;-46
2022/05/18 02:49:44;;;;;;;4.75;3.00;;;14.00;99.90;;;13.74;100.00;97731.44;4992853;28;20041;-48
2022/05/18 02:52:10;;;;;;;6.57;3.10;;;14.00;99.90;;;13.70;100.00;97736.94;4992242;28;20037;-46
2022/05/18 02:57:25;;;;;;;4.53;2.92;;;13.90;99.90;;;13.62;100.00;97736.41;4959883;28;20057;-48
2022/05/18 02:59:50;;;;;;;5.13;2.97;;;13.90;99.90;;;13.61;100.00;97743.50;4984495;28;20042;-46
2022/05/18 03:02:16;;;;;;;4.80;3.20;;;13.90;99.90;;;13.61;100.00;97750.63;4989569;28;20389;-47
2022/05/18 03:04:42;;;;;;;4.57;3.08;;;13.80;99.90;;;13.63;100.00;97751.41;4984689;28;20117;-47
2022/05/18 03:07:08;;;;;;;4.75;3.08;;;13.90;99.90;;;13.66;100.00;97738.03;4989250;28;20032;-46
2022/05/18 03:09:34;;;;;;;4.60;3.35;;;13.90;99.90;;;13.70;100.00;97742.25;4995229;28;20551;-47
2022/05/18 03:11:59;;;;;;;7.45;3.00;;;13.90;99.90;;;13.69;100.00;97745.81;4987104;28;20057;-45
2022/05/18 03:14:25;;;;;;;3.55;2.97;;;13.90;99.90;;;13.69;100.00;97746.69;4991096;28;21869;-46
2022/05/18 03:16:52;;;;;;;5.40;3.10;;;13.90;99.90;;;13.70;100.00;97747.56;4985947;28;20317;-45
2022/05/18 03:19:18;;;;;;;5.75;3.50;;;13.90;99.90;;;13.69;100.00;97744.06;4999634;28;20026;-45
2022/05/18 03:24:28;;;;;;;4.20;2.97;;;13.90;99.90;;;13.63;100.00;97752.25;4988125;28;20099;-46
2022/05/18 03:26:55;;;;;;;5.78;3.10;;;13.90;99.90;;;13.59;100.00;97753.31;4987202;28;20050;-47
2022/05/18 03:29:20;;;;;;;3.50;2.83;;;13.80;99.90;;;13.54;100.00;97748.22;4994964;28;20034;-48
2022/05/18 03:31:47;;;;;;;3.72;2.85;;;13.80;99.90;;;13.49;100.00;97746.69;5003722;28;20536;-46
2022/05/18 03:34:14;;;;;;;5.28;3.38;;;13.70;99.90;;;13.53;100.00;97751.81;4985541;28;20100;-45
2022/05/18 03:36:40;;;;;;;5.70;3.28;;;13.70;99.90;;;13.52;100.00;97759.81;4986940;28;20766;-47
2022/05/18 03:39:09;;;;;;;4.20;3.13;;;13.70;99.90;;;13.51;100.00;97758.97;4982407;28;20563;-47
2022/05/18 03:41:35;;;;;;;5.50;3.20;;;13.70;99.90;;;13.51;100.00;97753.66;4986127;28;20536;-47
2022/05/18 03:44:03;;;;;;;5.65;3.25;;;13.70;99.90;;;13.49;100.00;97752.00;4986606;28;20049;-47
2022/05/18 03:46:28;;;;;;;4.63;3.30;;;13.70;99.90;;;13.48;100.00;97753.78;4988470;28;20034;-45
2022/05/18 03:48:54;;;;;;;4.28;3.40;;;13.70;99.90;;;13.48;100.00;97758.25;4986304;28;20561;-48
2022/05/18 03:51:20;;;;;;;4.25;3.03;;;13.70;99.90;;;13.48;100.00;97761.75;4991912;28;20033;-46
2022/05/18 03:53:46;;;;;;;5.90;3.33;;;13.70;99.90;;;13.48;100.00;97756.44;4989586;28;20030;-47
2022/05/18 03:56:13;;;;;;;5.18;3.53;;;13.70;99.90;;;13.51;100.00;97752.78;4988126;28;20022;-45
2022/05/18 03:58:39;;;;;;;4.80;2.90;;;13.70;99.90;;;13.51;100.00;97747.47;4987817;28;21228;-47
2022/05/18 04:01:08;;;;;;;2.97;2.67;;;13.70;99.90;;;13.48;100.00;97748.50;4990246;28;20044;-46
2022/05/18 04:03:37;;;;;;;3.78;2.92;;;13.70;99.90;;;13.53;100.00;97759.75;4986891;28;20037;-47
2022/05/18 04:06:03;;;;;;;4.28;2.97;;;13.80;99.90;;;13.56;100.00;97764.06;4991390;28;20121;-46
2022/05/18 04:08:29;;;;;;;4.32;3.08;;;13.80;99.90;;;13.60;100.00;97773.59;4989540;28;20729;-49
2022/05/18 04:10:55;;;;;;;4.25;3.10;;;13.80;99.90;;;13.65;100.00;97768.09;4987046;28;20061;-50
2022/05/18 04:13:24;;;;;;;3.22;2.67;;;13.90;99.90;;;13.70;100.00;97774.06;4989708;28;20041;-48
2022/05/18 04:15:51;;;;;;;7.18;3.10;;;13.90;99.90;;;13.71;100.00;97781.06;4986969;28;20276;-47
2022/05/18 04:18:17;;;;;;;5.30;3.05;;;13.90;99.90;;;13.70;100.00;97780.22;4988811;28;20022;-46
2022/05/18 04:20:43;;;;;;;4.38;3.00;;;13.90;99.90;;;13.72;100.00;97782.81;4988824;28;20021;-48
2022/05/18 04:23:10;;;;;;;3.85;3.17;;;13.90;99.90;;;13.74;100.00;97780.94;4988195;28;20038;-45
2022/05/18 04:25:36;;;;;;;6.43;3.10;;;14.00;99.90;;;13.78;100.00;97782.53;4999238;28;20594;-50
2022/05/18 04:28:04;;;;;;;3.30;2.67;;;14.00;99.90;;;13.88;100.00;97788.28;4985988;28;20453;-45
2022/05/18 04:30:29;;;;;;;6.18;3.05;;;14.10;99.90;;;13.83;100.00;97769.94;4985321;28;20042;-45
2022/05/18 04:32:58;;;;;;;3.40;2.85;;;14.20;99.90;;;14.02;100.00;97787.69;4989838;28;20400;-46
2022/05/18 04:35:25;;;;;;;5.45;2.95;;;14.20;99.90;;;14.15;100.00;97790.66;4993630;28;20137;-48
2022/05/18 04:37:51;;;;;;;3.45;2.75;;;14.30;99.90;;;14.25;100.00;97795.47;4996467;28;20038;-47
2022/05/18 04:40:17;;;;;;;3.88;2.65;;;14.40;99.90;;;14.39;100.00;97793.97;4985481;28;20053;-48
2022/05/18 04:42:43;;;;;;;4.18;2.97;;;14.60;99.90;;;14.49;100.00;97792.63;4992090;28;20042;-48
2022/05/18 04:45:13;;;;;;;4.57;3.00;;;14.70;99.90;;;14.57;100.00;97786.94;4990084;28;20033;-46
2022/05/18 04:47:39;;;;;;;4.25;3.08;;;14.80;99.90;;;14.65;100.00;97801.63;5001788;28;20032;-46
2022/05/18 04:50:06;;;;;;;4.25;2.90;;;14.80;99.90;;;14.74;100.00;97796.81;4993947;28;20034;-48
2022/05/18 04:52:32;;;;;;;5.55;3.22;;;14.90;99.90;;;14.79;100.00;97808.09;4996154;28;20117;-47
2022/05/18 04:54:58;;;;;;;4.88;2.63;;;15.00;99.90;;;14.84;100.00;97806.94;4994065;28;20032;-46
2022/05/18 04:57:24;;;;;;;6.07;3.00;;;15.10;99.90;;;14.91;100.00;97812.78;4993941;28;20504;-50
2022/05/18 04:59:50;;;;;;;3.90;2.80;;;15.20;99.90;;;14.96;100.00;97816.09;4988228;28;20508;-47
2022/05/18 05:02:16;;;;;;;3.78;2.80;;;15.20;99.90;;;15.01;100.00;97814.06;4997898;28;20159;-48
2022/05/18 05:04:42;;;;;;;7.45;3.15;;;15.30;99.90;;;15.10;100.00;97818.09;4990688;28;20041;-46
2022/05/18 05:07:08;;;;;;;4.10;3.20;;;15.30;99.90;;;15.20;100.00;97824.69;4995504;28;20060;-46
2022/05/18 05:09:34;;;;;;;4.80;2.88;;;15.40;99.90;;;15.30;100.00;97818.91;4999976;28;20493;-45
2022/05/18 05:12:00;;;;;;;3.58;2.75;;;15.60;99.90;;;15.46;100.00;97831.34;4995097;28;20034;-46
2022/05/18 05:14:27;;;;;;;4.15;2.95;;;15.70;99.90;;;15.61;100.00;97823.53;4987155;28;20057;-48
2022/05/18 05:16:53;;;;;;;5.22;2.90;;;15.90;99.90;;;15.73;100.00;97819.41;4995107;28;23178;-50
2022/05/18 05:19:19;;;;;;;5.97;3.28;;;16.00;99.90;;;15.90;100.00;97822.09;4985992;28;20099;-48
2022/05/18 05:21:44;;;;;;;6.43;2.60;;;16.20;99.90;;;16.12;100.00;97828.97;4994315;28;20041;-50
2022/05/18 05:24:15;;;;;;;4.40;2.80;;;16.30;99.90;;;16.29;98.99;97828.06;4994146;28;20037;-47
2022/05/18 05:26:42;;;;;;;5.53;3.08;;;16.50;99.90;;;16.44;97.47;97821.03;4997764;28;20088;-48
2022/05/18 05:29:09;;;;;;;3.30;2.55;;;16.60;99.90;;;16.65;96.11;97827.00;4999322;28;20038;-50
2022/05/18 05:31:35;;;;;;;4.95;2.78;;;16.80;99.90;;;16.95;95.10;97830.66;4997483;28;20029;-47
2022/05/18 05:34:01;;;;;;;8.05;3.05;;;17.00;99.90;;;17.37;92.22;97825.66;4994761;28;20032;-51
2022/05/18 05:36:28;;;;;;;3.15;2.22;;;17.30;99.90;;;17.82;89.99;97839.94;4993103;28;20033;-48
2022/05/18 05:38:54;;;;;;;4.72;2.50;;;17.60;99.90;;;18.15;87.35;97841.53;5006292;28;20060;-47
2022/05/18 05:41:20;;;;;;;4.13;2.58;;;17.90;99.90;;;18.59;84.01;97834.41;4998037;28;20124;-49
2022/05/18 05:43:46;;;;;;;4.10;2.70;;;18.20;99.90;;;19.03;81.07;97842.31;5001208;28;20034;-48
2022/05/18 05:46:17;;;;;;;4.25;2.67;;;18.50;99.90;;;19.31;78.23;97840.53;4987964;28;20065;-48
2022/05/18 05:48:45;;;;;;;3.10;2.40;;;18.80;99.90;;;19.44;75.06;97852.13;4998296;28;20033;-50
2022/05/18 05:51:13;;;;;;;4.40;2.83;;;19.00;99.90;;;19.37;73.21;97847.28;4999840;28;20061;-47
2022/05/18 05:53:40;;;;;;;6.45;3.08;;;19.10;99.90;;;19.29;73.60;97850.47;4996289;28;20222;-49
2022/05/18 05:56:07;;;;;;;4.18;2.38;;;19.10;99.90;;;19.26;74.29;97853.34;5002132;28;20559;-49
2022/05/18 05:58:35;;;;;;;6.25;2.60;;;19.20;99.90;;;19.30;74.10;97862.88;4996173;28;20049;-51
2022/05/18 06:01:03;;;;;;;6.47;3.03;;;19.20;99.90;;;19.32;73.85;97868.97;4994354;28;20433;-48
2022/05/18 06:03:29;;;;;;;5.78;2.78;;;19.20;99.90;;;19.33;73.41;97860.00;4996125;28;20490;-45
2022/05/18 06:05:56;;;;;;;5.40;2.97;;;19.30;99.90;;;19.40;73.51;97855.13;5000279;28;20061;-50
2022/05/18 06:08:23;;;;;;;5.43;3.40;;;19.40;99.90;;;19.48;73.56;97859.97;4991003;28;20040;-47
2022/05/18 06:10:49;;;;;;;4.80;3.00;;;19.40;99.90;;;19.52;72.95;97862.31;4999646;28;20038;-47
2022/05/18 06:13:15;;;;;;;5.65;2.90;;;19.50;99.90;;;19.60;72.81;97869.84;4992918;28;20038;-50
2022/05/18 06:15:41;;;;;;;8.18;3.45;;;19.60;99.90;;;19.58;70.70;97864.59;4997425;28;20040;-48
2022/05/18 06:18:07;;;;;;;5.07;3.58;;;19.60;99.90;;;19.55;70.12;97858.59;5004152;28;20480;-49
2022/05/18 06:20:34;;;;;;;5.85;3.38;;;19.60;99.90;;;19.63;70.64;97867.84;4999607;28;20034;-47
2022/05/18 06:23:07;;;;;;;4.40;2.53;;;19.70;99.90;;;19.71;70.88;97877.16;4999591;28;20039;-49
2022/05/18 06:25:34;;;;;;;4.68;2.75;;;19.80;99.90;;;19.78;70.44;97863.31;4993028;28;20045;-49
2022/05/18 06:28:00;;;;;;;6.65;3.03;;;19.90;99.90;;;19.88;68.70;97865.34;5000958;28;20065;-49
2022/05/18 06:30:26;;;;;;;3.97;2.70;;;20.00;99.90;;;19.97;69.02;97870.97;4996647;28;20048;-47
2022/05/18 06:32:53;;;;;;;3.55;2.58;;;20.00;99.90;;;20.06;68.38;97868.59;4999382;28;20426;-48
2022/05/18 06:35:19;;;;;;;3.45;2.65;;;20.10;99.90;;;20.15;67.94;97870.66;5000442;28;20026;-48
2022/05/18 06:37:44;;;;;;;3.38;2.45;;;20.20;99.90;;;20.26;67.03;97869.91;5002946;28;20045;-47
2022/05/18 06:40:11;;;;;;;5.65;2.90;;;20.30;99.90;;;20.31;64.89;97867.78;5000330;28;20104;-49
2022/05/18 06:42:36;;;;;;;3.30;2.58;;;20.40;99.90;;;20.38;65.96;97867.25;5003629;28;20474;-49
2022/05/18 06:45:04;;;;;;;5.82;2.90;;;20.40;99.90;;;20.51;63.91;97879.78;5003523;28;20038;-47
2022/05/18 06:47:31;;;;;;;5.70;3.28;;;20.50;99.90;;;20.55;65.66;97866.06;5000431;28;20040;-49
2022/05/18 06:49:57;;;;;;;3.67;2.92;;;20.60;99.90;;;20.65;63.56;97879.69;5003472;28;20037;-49
2022/05/18 06:52:23;;;;;;;7.28;2.50;;;20.70;99.90;;;20.76;64.44;97870.91;4992338;28;20460;-48
2022/05/18 06:54:49;;;;;;;5.63;3.08;;;20.80;99.90;;;20.83;61.53;97874.00;4989634;28;20065;-51
2022/05/18 06:57:15;;;;;;;3.88;2.60;;;20.90;99.90;;;20.96;61.86;97874.84;4989167;28;20034;-51
2022/05/18 06:59:41;;;;;;;5.38;2.58;;;21.00;99.90;;;21.12;61.70;97870.13;4994907;28;20084;-49
2022/05/18 07:02:07;;;;;;;6.72;2.90;;;21.10;99.90;;;21.21;59.22;97873.94;4994285;28;20045;-49
2022/05/18 07:04:33;;;;;;;4.20;2.33;;;21.30;99.90;;;21.38;60.18;97875.38;4997063;28;20053;-51
2022/05/18 07:07:00;;;;;;;9.43;2.75;;;21.40;99.90;;;21.46;60.35;97873.03;4994969;28;20509;-51
2022/05/18 07:09:28;;;;;;;7.35;2.83;;;21.50;99.90;;;21.52;59.32;97871.72;4996383;28;20182;-49
2022/05/18 07:11:54;;;;;;;5.40;2.80;;;21.60;99.90;;;21.57;59.79;97877.63;4993921;28;20041;-47
2022/05/18 07:14:23;;;;;;;4.32;2.75;;;21.60;99.90;;;21.65;59.19;97877.88;5004682;28;20038;-50
2022/05/18 07:16:50;;;;;;;9.00;2.40;;;21.70;99.90;;;21.72;58.10;97878.28;4991469;28;20121;-48
2022/05/18 07:19:17;;;;;;;3.72;2.40;;;21.70;99.90;;;21.73;57.88;97871.94;5043283;23;20049;-46
2022/05/18 07:21:43;;;;;;;6.28;2.53;;;21.80;99.90;;;21.85;58.35;97879.06;5035221;28;20520;-46
2022/05/18 07:24:10;;;;;;;5.75;3.20;;;21.90;99.90;;;21.92;56.58;97871.41;5023567;28;20217;-47
2022/05/18 07:26:37;;;;;;;3.72;2.38;;;22.00;99.90;;;22.04;58.29;97880.38;5025767;28;20507;-48
2022/05/18 07:29:05;;;;;;;9.25;3.20;;;22.10;99.90;;;22.07;57.53;97875.63;5032088;28;20041;-46
2022/05/18 07:32:08;;;;;;;4.82;2.53;;;22.10;99.90;;;22.18;56.75;97880.19;5020479;28;20045;-43
2022/05/18 07:34:18;;;;;;;3.83;2.83;;;22.20;99.90;;;22.24;56.46;97877.00;5024181;28;20052;-46
2022/05/18 07:36:44;;;;;;;6.18;2.88;;;22.30;99.90;;;22.28;57.22;97870.44;5031742;28;20033;-44
2022/05/18 07:39:11;;;;;;;8.20;3.60;;;22.30;99.90;;;22.33;56.31;97880.00;5037297;28;20056;-47
2022/05/18 07:41:38;;;;;;;6.68;3.13;;;22.30;99.90;;;22.35;55.37;97880.75;5018304;28;20029;-46
2022/05/18 07:44:04;;;;;;;4.70;2.60;;;22.40;99.60;;;22.39;54.48;97876.81;5035488;28;20463;-45
2022/05/18 07:46:30;;;;;;;5.63;2.38;;;22.40;99.20;;;22.43;54.31;97883.66;5028109;28;20323;-47
2022/05/18 07:48:56;;;;;;;8.02;2.95;;;22.50;98.80;;;22.50;54.01;97884.91;5034913;28;20471;-48
2022/05/18 07:51:22;;;;;;;4.10;2.50;;;22.50;98.50;;;22.59;54.62;97867.22;5023004;28;20048;-45
2022/05/18 07:53:47;;;;;;;4.85;2.50;;;22.60;98.80;;;22.72;54.08;97872.47;5028614;28;20029;-44
2022/05/18 07:56:13;;;;;;;5.15;2.80;;;22.70;98.50;;;22.79;52.79;97869.19;5023704;28;20485;-49
2022/05/18 07:58:40;;;;;;;3.85;2.30;;;22.80;98.00;;;22.91;53.01;97866.50;5024348;28;20220;-46
2022/05/18 08:01:08;;;;;;;3.90;2.47;;;22.90;97.90;;;22.97;52.65;97871.38;5020307;28;20033;-45
2022/05/18 08:03:33;;;;;;;3.17;2.50;;;22.90;97.40;;;23.06;52.03;97876.06;5025569;28;20066;-48
2022/05/18 08:05:59;;;;;;;6.57;2.80;;;23.00;97.00;;;23.14;51.56;97888.88;5027570;28;20040;-45
2022/05/18 08:08:25;;;;;;;3.78;2.60;;;23.10;97.10;;;23.16;51.54;97874.31;5026201;28;20055;-46
2022/05/18 08:16:20;;;;;;;6.82;3.15;;;23.20;96.20;;;23.22;51.22;97870.28;5020437;28;20079;-45
2022/05/18 08:18:48;;;;;;;3.70;2.40;;;23.30;96.10;;;23.36;50.42;97871.84;5025725;28;20492;-45
2022/05/18 08:21:15;;;;;;;5.68;2.70;;;23.40;96.00;;;23.37;48.48;97882.50;5025690;28;20079;-45
2022/05/18 08:23:40;;;;;;;3.30;2.30;;;23.50;94.10;;;23.46;47.05;97888.97;5024708;28;20565;-45
2022/05/18 08:26:06;;;;;;;5.55;2.85;;;23.50;93.40;;;23.47;46.94;97885.28;5023974;28;20159;-45
2022/05/18 08:28:32;;;;;;;4.13;2.88;;;23.50;92.90;;;23.47;46.67;97876.34;5031017;28;20033;-45
2022/05/18 08:30:58;;;;;;;3.45;2.70;;;23.50;92.70;;;23.56;46.81;97880.97;5034102;28;20094;-45
2022/05/18 08:33:24;;;;;;;4.20;2.28;;;23.60;92.80;;;23.61;45.91;97879.59;5021568;28;20021;-45
2022/05/18 08:35:50;;;;;;;4.82;2.35;;;23.60;92.10;;;23.70;46.39;97885.22;5027574;28;20033;-44
2022/05/18 08:38:17;;;;;;;3.67;2.78;;;23.70;92.10;;;23.82;46.26;97889.63;5024550;28;20037;-46
2022/05/18 08:40:51;;;;;;;7.78;2.90;;;23.80;91.90;;;23.81;46.68;97891.47;5023828;28;20448;-47
2022/05/18 08:43:32;;;;;;;4.13;2.45;;;23.80;92.90;;;23.90;47.95;97884.44;5022816;28;20037;-46
2022/05/18 08:46:13;;;;;;;3.17;2.25;;;23.90;92.00;;;23.99;46.30;97886.38;5023708;28;20035;-43
2022/05/18 08:49:00;;;;;;;3.70;2.60;;;24.00;91.80;;;24.08;45.64;97879.34;5006259;28;20041;-44
2022/05/18 08:52:01;;;;;;;4.45;2.75;;;24.10;91.30;;;24.22;47.50;97888.94;5028902;28;20033;-42
2022/05/18 08:54:38;;;;;;;5.85;2.85;;;24.30;91.20;;;24.29;44.96;97889.28;5017069;28;20102;-44
2022/05/18 08:57:18;;;;;;;3.70;2.42;;;24.30;90.70;;;24.37;45.34;97887.66;5026254;28;20037;-44
2022/05/18 08:59:48;;;;;;;6.05;2.80;;;24.30;90.70;;;24.29;44.65;97894.69;5009117;28;20025;-45
2022/05/18 09:02:24;;;;;;;3.97;2.72;;;24.30;89.50;;;24.25;45.61;97868.97;5010070;28;20079;-45
2022/05/18 09:05:06;;;;;;;5.22;2.13;;;24.30;90.20;;;24.34;44.59;97879.81;5004172;28;20519;-43
2022/05/18 09:07:48;;;;;;;3.88;2.50;;;24.40;89.80;;;24.46;44.59;97895.91;5029306;28;20175;-45
2022/05/18 09:10:36;;;;;;;3.20;2.35;;;24.50;90.10;;;24.44;44.09;97879.03;5007007;28;20539;-44
2022/05/18 09:13:03;;;;;;;2.53;2.10;;;24.40;88.10;;;24.48;45.21;97886.72;5011924;28;20520;-44
2022/05/18 09:15:39;;;;;;;2.67;2.25;;;24.50;88.80;;;24.49;44.26;97885.72;5024892;28;20029;-43
2022/05/18 09:18:24;;;;;;;4.65;2.70;;;24.50;88.90;;;24.50;46.49;97883.91;5025386;28;20033;-46
2022/05/18 09:21:13;;;;;;;4.28;2.42;;;24.50;88.20;;;24.53;44.27;97886.34;5016609;28;22803;-43
2022/05/18 09:23:47;;;;;;;4.00;2.53;;;24.60;87.70;;;24.55;41.52;97890.63;5011966;28;20096;-44
2022/05/18 09:26:45;;;;;;;3.90;2.42;;;24.60;83.60;;;24.55;42.74;97885.25;5030544;28;20033;-49
2022/05/18 09:29:51;;;;;;;3.50;2.17;;;24.60;84.60;;;24.54;42.34;97890.75;5024307;28;20136;-44
2022/05/18 09:32:37;;;;;;;2.75;1.90;;;24.50;83.30;;;24.55;43.64;97892.50;5023832;28;20064;-46
2022/05/18 09:35:39;;;;;;;7.25;2.45;;;24.60;84.50;;;24.66;44.14;97889.69;5021998;28;20049;-49
2022/05/18 09:38:19;;;;;;;2.90;1.90;;;24.70;85.50;;;24.73;41.13;97884.63;5017239;28;20032;-45
2022/05/18 09:40:48;;;;;;;5.38;2.00;;;24.70;83.00;;;24.73;39.83;97880.09;5006203;28;20558;-45
2022/05/18 09:43:52;;;;;;;2.13;1.80;;;24.70;79.20;;;24.77;39.66;97889.63;5026449;28;20036;-47
2022/05/18 09:46:24;;;;;;;3.40;2.10;;;24.80;76.90;;;24.84;39.45;97881.84;5016390;28;20582;-47
2022/05/18 09:49:27;;;;;;;3.67;2.30;;;24.90;77.20;;;24.74;40.46;97880.94;5024275;28;20404;-44
2022/05/18 09:51:55;;;;;;;4.53;1.90;;;24.80;77.90;;;24.74;41.36;97876.38;5001574;28;20037;-44
2022/05/18 09:54:20;;;;;;;5.68;2.03;;;24.80;79.50;;;24.68;39.26;97878.78;4996763;28;20048;-45
2022/05/18 09:56:56;;;;;;;3.80;1.88;;;24.80;78.40;;;24.78;40.38;97871.56;5024588;28;20919;-48
2022/05/18 09:59:30;;;;;;;3.17;2.03;;;24.80;78.10;;;24.92;39.69;97878.47;5026281;28;20040;-45
2022/05/18 10:07:34;;;;;;;3.50;1.73;;;25.20;72.70;;;25.29;39.12;97864.44;5027976;28;20122;-47
2022/05/18 10:10:04;;;;;;;4.13;1.67;;;25.30;75.20;;;25.40;38.29;97863.47;5035806;28;20025;-44
2022/05/18 10:12:48;;;;;;;2.85;2.05;;;25.40;73.30;;;25.50;40.50;97867.00;5028290;28;20033;-48
2022/05/18 10:15:31;;;;;;;3.65;1.90;;;25.50;77.00;;;25.34;36.47;97840.59;5029283;28;20392;-45
2022/05/18 10:18:09;;;;;;;7.68;1.90;;;25.50;70.10;;;25.52;38.14;97852.41;5013601;28;20029;-46
2022/05/18 10:20:37;;;;;;;3.60;1.90;;;25.50;71.70;;;25.52;38.44;97852.41;5022261;28;20516;-47
2022/05/18 10:23:04;;;;;;;5.38;1.80;;;25.50;73.10;;;25.48;39.68;97831.19;5013923;28;20024;-47
2022/05/18 10:25:47;;;;;;;2.53;1.92;;;25.60;73.60;;;25.61;38.34;97848.00;5020219;28;20037;-45
2022/05/18 10:28:24;;;;;;;2.65;1.70;;;25.60;72.30;;;25.61;38.81;97847.13;5010864;28;20039;-47
2022/05/18 10:31:03;;;;;;;2.45;1.80;;;25.60;72.90;;;25.64;39.15;97853.09;5022483;28;21646;-47
2022/05/18 10:33:39;;;;;;;3.35;2.08;;;25.60;73.20;;;25.56;39.06;97842.16;5028726;28;20107;-48
2022/05/18 10:36:13;;;;;;;5.50;2.10;;;25.60;72.70;;;25.48;37.73;97840.19;5031008;28;20049;-43
2022/05/18 10:38:57;;;;;;;3.15;2.05;;;25.50;70.70;;;25.52;37.87;97846.16;5029336;28;20483;-47
2022/05/18 10:41:28;;;;;;;2.97;1.85;;;25.50;70.90;;;25.53;38.43;97839.75;5026316;28;20163;-45
2022/05/18 10:44:33;;;;;;;3.28;1.55;;;25.50;71.00;;;25.63;38.12;97832.50;5027297;28;20079;-45
2022/05/18 10:47:14;;;;;;;3.70;1.77;;;25.60;72.00;;;25.78;38.15;97837.50;4978041;28;20110;-47